Terminal Aerodrome Forecast
Issued by NWS

Current Version | Previous Version | Text Only | Print | Product List | Glossary On
Versions: 1 2 3 4 5 6 7 8 9 10 11 12 13 14 15 16 17 18 19 20
078
FTUS41 KILN 201727
TAFLUK
TAF
KLUK 201727Z 2018/2118 12005KT P6SM FEW020 SCT250
     FM210500 00000KT 3SM BR SCT250
      TEMPO 2106/2110 1SM BR
     FM211300 19008KT P6SM FEW035 OVC150=

USA.gov is the U.S. government's official web portal to all federal, state and local government web resources and services.